• Join FlightAware (Why Join?)
  • Login
  • US Flag 
10:59AM EDT


 

Airport Tracker/Info


-or-


 

Live Flight TrackerFlight Track Log ✈ SWA3943 ✈ 22-Apr-2013 ✈ KMCO - KCMH

Flight Track Log - Related Links

Times and Time Zones

All times are in EDT time to prevent confusion due to time zone crossing. See the SWA3943 flight status page for this flight to view local times or setup timezone preferences in your user account.

Time Position Orientation Groundspeed Altitude Reporting Facility
EDT Latitude Longitude Course Direction KTS MPH feet Rate Location/Type
06:50PM 28.4333 -81.3000 12° North 150 173 800  Level Orlando TRACON
06:51PM 28.5000 -81.2833 12° North 206 237 3,400 1,860 Climbing Orlando TRACON
06:52PM 28.5500 -81.2500 30° Northeast 265 305 4,900 2,520 Climbing Orlando TRACON
06:54PM 28.6675 -81.2600 356° North 262 302 10,300 2,880 Climbing Jacksonville Center
06:55PM 28.7556 -81.2844 346° North 284 327 12,700 2,640 Climbing Jacksonville Center
06:56PM 28.8519 -81.3161 344° North 325 374 15,600 2,640 Climbing Jacksonville Center
06:57PM 28.9544 -81.3431 347° North 357 411 18,000 1,200 Climbing Jacksonville Center
06:58PM 29.0592 -81.3769 344° North 376 433 18,000 360 Level Jacksonville Center
06:59PM 29.1681 -81.3944 352° North 382 440 18,800 1,800 Climbing Jacksonville Center
07:00PM 29.2789 -81.4094 353° North 392 451 21,600 2,520 Climbing Jacksonville Center
07:01PM 29.3856 -81.4269 352° North 397 457 23,900 2,400 Climbing Jacksonville Center
07:02PM 29.5092 -81.4750 341° North 402 463 26,400 1,920 Climbing Jacksonville Center
07:03PM 29.5994 -81.5311 332° Northwest 402 463 27,800 1,500 Climbing Jacksonville Center
07:04PM 29.7067 -81.6036 330° Northwest 421 484 29,400 1,800 Climbing Jacksonville Center
07:05PM 29.8119 -81.6767 329° Northwest 440 506 31,400 1,800 Climbing Jacksonville Center
07:06PM 29.9189 -81.7472 330° Northwest 447 514 33,000 1,740 Climbing Jacksonville Center
07:07PM 30.0383 -81.7769 348° North 439 505 34,900 1,200 Climbing Jacksonville Center
07:08PM 30.1594 -81.7875 356° North 430 495 35,400 840 Climbing Jacksonville Center
07:09PM 30.2847 -81.8006 355° North 436 502 36,600 780 Climbing Jacksonville Center
07:10PM 30.4081 -81.8136 355° North 447 514 37,000 180 Climbing Jacksonville Center
07:11PM 30.5356 -81.8267 355° North 447 514 37,000  Level Jacksonville Center
07:12PM 30.6778 -81.8467 353° North 460 529 37,000  Level Jacksonville Center
07:13PM 30.8053 -81.8597 355° North 460 529 37,000  Level Jacksonville Center
07:14PM 30.9328 -81.8753 354° North 460 529 37,000  Level Jacksonville Center
07:15PM 31.0581 -81.8861 356° North 460 529 37,000  Level Jacksonville Center
07:16PM 31.1833 -81.8969 356° North 452 520 37,000  Level Jacksonville Center
07:17PM 31.3089 -81.9125 354° North 447 514 37,000  Level Jacksonville Center
07:18PM 31.4319 -81.9236 356° North 446 513 37,000  Level Jacksonville Center
07:19PM 31.5575 -81.9369 355° North 440 506 37,000  Level Jacksonville Center
07:20PM 31.6681 -81.9478 355° North 445 512 37,000  Level Jacksonville Center
07:22PM 31.9506 -81.9778 355° North 463 533 37,000  Level Atlanta Center
07:23PM 32.0781 -81.9922 355° North 458 527 37,000  Level Atlanta Center
07:24PM 32.2056 -82.0039 356° North 458 527 37,000  Level Atlanta Center
07:25PM 32.3186 -82.0136 356° North 463 533 37,000  Level Atlanta Center
07:26PM 32.4461 -82.0256 355° North 463 533 37,000  Level Atlanta Center
07:27PM 32.5736 -82.0397 355° North 463 533 37,000  Level Atlanta Center
07:28PM 32.7011 -82.0467 357° North 463 533 37,000  Level Atlanta Center
07:29PM 32.8306 -82.0489 359° North 463 533 37,000  Level Atlanta Center
07:30PM 32.9578 -82.0483 360° North 458 527 37,000  Level Atlanta Center
07:31PM 33.0872 -82.0456 North 458 527 37,000  Level Atlanta Center
07:32PM 33.2125 -82.0450 360° North 458 527 37,000  Level Atlanta Center
07:33PM 33.3522 -82.0444 360° North 458 527 37,000  Level Atlanta Center
07:34PM 33.4775 -82.0439 360° North 458 527 37,000  Level Atlanta Center
07:35PM 33.6089 -82.0433 360° North 458 527 37,000  Level Atlanta Center
07:36PM 33.7406 -82.0428 360° North 463 533 37,000  Level Atlanta Center
07:37PM 33.8739 -82.0422 360° North 468 539 37,000  Level Atlanta Center
07:38PM 34.0075 -82.0417 360° North 468 539 37,000  Level Atlanta Center
07:39PM 34.1411 -82.0433 359° North 474 545 37,000  Level Atlanta Center
07:40PM 34.2747 -82.0428 360° North 479 551 37,000  Level Atlanta Center
07:41PM 34.3958 -82.0425 360° North 479 551 37,000  Level Atlanta Center
07:42PM 34.5294 -82.0419 360° North 479 551 37,000  Level Atlanta Center
07:43PM 34.6650 -82.0411 360° North 474 545 37,000  Level Atlanta Center
07:44PM 34.7986 -82.0406 360° North 480 552 37,000  Level Atlanta Center
07:45PM 34.9364 -82.0447 359° North 485 558 37,000  Level Atlanta Center
07:46PM 35.0697 -82.0417 North 480 552 37,000  Level Atlanta Center
07:47PM 35.2181 -82.0431 360° North 475 547 37,000  Level Atlanta Center
07:48PM 35.3514 -82.0425 360° North 476 548 37,000  Level Atlanta Center
07:49PM 35.4892 -82.0417 360° North 476 548 37,000  Level Atlanta Center
07:50PM 35.6247 -82.0408 360° North 481 554 37,000  Level Atlanta Center
07:51PM 35.7644 -82.0400 360° North 487 560 37,000  Level Atlanta Center
07:52PM 35.8981 -82.0392 360° North 492 566 37,000  Level Atlanta Center
07:53PM 36.0211 -82.0389 360° North 492 566 37,000  Level Atlanta Center
07:54PM 36.1567 -82.0406 359° North 492 566 37,000  Level Atlanta Center
07:55PM 36.2944 -82.0372 North 484 557 37,000  Level Atlanta Center
07:56PM 36.4319 -82.0364 360° North 484 557 37,000  Level Atlanta Center
07:57PM 36.5653 -82.0331 North 479 551 37,000  Level Atlanta Center
07:58PM 36.7008 -82.0347 359° North 479 551 37,000  Level Atlanta Center
08:00PM 36.9894 -82.0319 360° North 486 559 37,000 -180 Level Indianapolis Center
08:01PM 37.1239 -82.0328 360° North 486 559 36,500 -780 Descending Indianapolis Center
08:02PM 37.2578 -82.0322 360° North 483 556 35,500 -960 Descending Indianapolis Center
08:03PM 37.3906 -82.0317 360° North 479 551 34,600 -900 Descending Indianapolis Center
08:04PM 37.5242 -82.0319 360° North 482 555 33,700 -960 Descending Indianapolis Center
08:05PM 37.6572 -82.0308 360° North 479 551 32,700 -1,080 Descending Indianapolis Center
08:06PM 37.8042 -82.0300 360° North 458 527 31,500 -840 Descending Indianapolis Center
08:07PM 37.9067 -82.0300 360° North 442 509 31,000 -300 Descending Indianapolis Center
08:08PM 38.0292 -82.0286 North 440 506 31,000  Level Indianapolis Center
08:09PM 38.1783 -82.0278 360° North 442 509 31,000  Level Indianapolis Center
08:10PM 38.3036 -82.0281 360° North 447 514 31,000  Level Indianapolis Center
08:11PM 38.4300 -82.0283 360° North 450 518 31,000 -60 Level Indianapolis Center
08:12PM 38.5564 -82.0275 360° North 450 518 30,900 -1,080 Descending Indianapolis Center
08:13PM 38.6761 -82.0261 North 429 494 28,900 -2,160 Descending Indianapolis Center
08:14PM 38.7919 -82.0394 355° North 414 476 26,500 -2,340 Descending Indianapolis Center
08:15PM 38.8967 -82.0833 342° North 394 453 24,200 -1,740 Descending Indianapolis Center
08:16PM 39.0011 -82.1244 343° North 391 450 23,000 -1,800 Descending Indianapolis Center
08:17PM 39.1044 -82.1661 343° North 387 445 20,600 -2,400 Descending Indianapolis Center
08:18PM 39.2058 -82.2064 343° North 381 438 18,100 -2,400 Descending Indianapolis Center
08:19PM 39.3042 -82.2458 343° North 370 426 15,800 -2,580 Descending Indianapolis Center
08:20PM 39.4047 -82.2869 342° North 360 414 13,300 -2,460 Descending Indianapolis Center
08:22PM 39.5133 -82.3300 343° North 353 406 10,800 -1,560 Descending Indianapolis Center
08:22PM 39.5744 -82.3831 326° Northwest 313 360 10,200 -1,020 Descending Indianapolis Center
08:23PM 39.6400 -82.4386 327° Northwest 288 331 8,900 -1,440 Descending Indianapolis Center
08:25PM 39.7169 -82.5081 325° Northwest 281 323 7,100 -1,440 Descending Indianapolis Center
08:25PM 39.7722 -82.5614 323° Northwest 282 325 6,000 -1,080 Descending Indianapolis Center
08:26PM 39.8336 -82.6169 325° Northwest 260 299 5,200 -1,020 Descending Indianapolis Center
08:27PM 39.8931 -82.6694 326° Northwest 263 303 4,000 -780 Descending Indianapolis Center
08:29PM 39.9522 -82.7250 324° Northwest 216 249 3,600 -840 Descending Indianapolis Center
08:30PM 39.9914 -82.7789 313° West 228 262 2,200 -1,080 Descending Indianapolis Center
08:31PM 39.9922 -82.8464 271° West 157 181 1,300 -540 Descending Indianapolis Center
08:32PM 39.9933 -82.9014 272° West 187 215 1,100 -240 Descending Indianapolis Center